Time;durP1;ratioP1;P1;durP2;ratioP2;P2;SDS_P1;SDS_P2;PMS_P1;PMS_P2;Temp;Humidity;BMP_temperature;BMP_pressure;BME280_temperature;BME280_humidity;BME280_pressure;Samples;Min_cycle;Max_cycle;Signal;HPM_P1;HPM_P2
2023/05/03 00:01:19;;;;;;;;;;;;;;;;;;4968270;28;7101;-93
2023/05/03 00:03:45;;;;;;;;;;;;;;;;;;4967826;28;8260;-94
2023/05/03 00:06:15;;;;;;;;;;;;;;;;;;4968445;28;8506;-94
2023/05/03 00:08:41;;;;;;;;;;;;;;;;;;4968317;28;6815;-95
2023/05/03 00:11:07;;;;;;;;;;;;;;;;;;4968118;28;7171;-94
2023/05/03 00:13:33;;;;;;;;;;;;;;;;;;4968009;28;7043;-94
2023/05/03 00:15:58;;;;;;;;;;;;;;;;;;4968235;28;8664;-94
2023/05/03 00:18:24;;;;;;;;;;;;;;;;;;4967930;28;7008;-94
2023/05/03 00:20:54;;;;;;;;;;;;;;;;;;4968087;28;8916;-94
2023/05/03 00:23:20;;;;;;;;;;;;;;;;;;4968247;28;7348;-95
2023/05/03 00:25:46;;;;;;;;;;;;;;;;;;4967787;28;7160;-94
2023/05/03 00:28:11;;;;;;;;;;;;;;;;;;4968157;28;6996;-94
2023/05/03 00:30:37;;;;;;;;;;;;;;;;;;4967710;28;6808;-92
2023/05/03 00:33:03;;;;;;;;;;;;;;;;;;4967798;28;7323;-94
2023/05/03 00:35:28;;;;;;;;;;;;;;;;;;4967889;28;6995;-95
2023/05/03 00:37:54;;;;;;;;;;;;;;;;;;4967855;28;8662;-94
2023/05/03 00:40:20;;;;;;;;;;;;;;;;;;4968005;28;7003;-96
2023/05/03 00:42:46;;;;;;;;;;;;;;;;;;4967838;28;8437;-94
2023/05/03 00:45:11;;;;;;;;;;;;;;;;;;4966523;28;7144;-94
2023/05/03 00:47:38;;;;;;;;;;;;;;;;;;4967562;28;6997;-93
2023/05/03 00:50:05;;;;;;;;;;;;;;;;;;4967609;28;7240;-94
2023/05/03 00:52:30;;;;;;;;;;;;;;;;;;4967104;28;8270;-95
2023/05/03 00:54:56;;;;;;;;;;;;;;;;;;4967645;28;7126;-94
2023/05/03 00:57:23;;;;;;;;;;;;;;;;;;4967389;28;7134;-95
2023/05/03 00:59:48;;;;;;;;;;;;;;;;;;4967675;28;7033;-95
2023/05/03 01:02:14;;;;;;;;;;;;;;;;;;4968499;28;8457;-94
2023/05/03 01:04:41;;;;;;;;;;;;;;;;;;5002844;28;7154;-94
2023/05/03 01:07:13;;;;;;;;;;;;;;;;;;5002754;28;6819;-95
2023/05/03 01:09:48;;;;;;;;;;;;;;;;;;5002748;28;8550;-94
2023/05/03 01:12:19;;;;;;;;;;;;;;;;;;5002556;28;8367;-93
2023/05/03 01:14:48;;;;;;;;;;;;;;;;;;5002640;28;6834;-95
2023/05/03 01:17:14;;;;;;;;;;;;;;;;;;5002682;28;8354;-94
2023/05/03 01:19:44;;;;;;;;;;;;;;;;;;5002475;28;8451;-94
2023/05/03 01:22:39;;;;;;;;;;;;;;;;;;5002597;28;8396;-94
2023/05/03 01:25:10;;;;;;;;;;;;;;;;;;4950801;28;7017;-95
2023/05/03 01:27:36;;;;;;;;;;;;;;;;;;5002551;28;7129;-95
2023/05/03 01:30:07;;;;;;;;;;;;;;;;;;5002495;28;6997;-94
2023/05/03 01:32:35;;;;;;;;;;;;;;;;;;5002570;28;8333;-95
2023/05/03 01:35:11;;;;;;;;;;;;;;;;;;5002373;28;7182;-94
2023/05/03 01:37:38;;;;;;;;;;;;;;;;;;5002658;28;7051;-94
2023/05/03 01:40:07;;;;;;;;;;;;;;;;;;5002363;28;7183;-94
2023/05/03 01:42:35;;;;;;;;;;;;;;;;;;5002162;28;8580;-96
2023/05/03 01:45:03;;;;;;;;;;;;;;;;;;5002597;28;7229;-94
2023/05/03 01:47:29;;;;;;;;;;;;;;;;;;5002096;28;7375;-94
2023/05/03 01:49:55;;;;;;;;;;;;;;;;;;5002154;28;7040;-93
2023/05/03 01:52:20;;;;;;;;;;;;;;;;;;5002283;28;7020;-94
2023/05/03 01:54:46;;;;;;;;;;;;;;;;;;5002826;28;7148;-94
2023/05/03 01:57:12;;;;;;;;;;;;;;;;;;5006419;28;6997;-93
2023/05/03 01:59:37;;;;;;;;;;;;;;;;;;5006447;28;6997;-93
2023/05/03 02:02:03;;;;;;;;;;;;;;;;;;5006046;28;6874;-94
2023/05/03 02:04:29;;;;;;;;;;;;;;;;;;5006130;28;8243;-94
2023/05/03 02:06:54;;;;;;;;;;;;;;;;;;5006153;28;6829;-94
2023/05/03 02:09:21;;;;;;;;;;;;;;;;;;5006324;28;6964;-93
2023/05/03 02:11:47;;;;;;;;;;;;;;;;;;5006163;28;8359;-94
2023/05/03 02:14:12;;;;;;;;;;;;;;;;;;5005706;28;6807;-93
2023/05/03 02:16:38;;;;;;;;;;;;;;;;;;5006029;28;8531;-94
2023/05/03 02:19:06;;;;;;;;;;;;;;;;;;5006009;28;7050;-93
2023/05/03 02:21:32;;;;;;;;;;;;;;;;;;5005753;28;6997;-94
2023/05/03 02:23:59;;;;;;;;;;;;;;;;;;5005784;28;7029;-93
2023/05/03 02:26:25;;;;;;;;;;;;;;;;;;5005673;28;8414;-94
2023/05/03 02:28:51;;;;;;;;;;;;;;;;;;5005577;28;7480;-93
2023/05/03 02:31:17;;;;;;;;;;;;;;;;;;5005485;28;8259;-93
2023/05/03 02:33:42;;;;;;;;;;;;;;;;;;5005555;28;6809;-93
2023/05/03 02:36:08;;;;;;;;;;;;;;;;;;5005855;28;7020;-93
2023/05/03 02:38:33;;;;;;;;;;;;;;;;;;5005587;28;8343;-93
2023/05/03 02:40:59;;;;;;;;;;;;;;;;;;5005127;28;8598;-94
2023/05/03 02:43:25;;;;;;;;;;;;;;;;;;4993845;28;7223;-93
2023/05/03 02:45:50;;;;;;;;;;;;;;;;;;4983729;28;8288;-94
2023/05/03 02:48:16;;;;;;;;;;;;;;;;;;4997426;28;7021;-93
2023/05/03 02:50:42;;;;;;;;;;;;;;;;;;4993909;28;8384;-93
2023/05/03 02:53:07;;;;;;;;;;;;;;;;;;4986399;28;7322;-96
2023/05/03 02:55:33;;;;;;;;;;;;;;;;;;5007312;28;6822;-93
2023/05/03 02:57:59;;;;;;;;;;;;;;;;;;5011391;28;7089;-94
2023/05/03 03:00:25;;;;;;;;;;;;;;;;;;5009322;28;7140;-94
2023/05/03 03:02:51;;;;;;;;;;;;;;;;;;5009186;28;7011;-93
2023/05/03 03:05:17;;;;;;;;;;;;;;;;;;5009705;28;7280;-93
2023/05/03 03:07:42;;;;;;;;;;;;;;;;;;5005666;28;8718;-93
2023/05/03 03:10:09;;;;;;;;;;;;;;;;;;5005177;28;7480;-94
2023/05/03 03:12:35;;;;;;;;;;;;;;;;;;5004839;28;7923;-93
2023/05/03 03:15:00;;;;;;;;;;;;;;;;;;5004651;28;7031;-92
2023/05/03 03:17:26;;;;;;;;;;;;;;;;;;5004921;28;7016;-93
2023/05/03 03:19:52;;;;;;;;;;;;;;;;;;5004819;28;7043;-93
2023/05/03 03:22:17;;;;;;;;;;;;;;;;;;5004595;28;8326;-93
2023/05/03 03:24:44;;;;;;;;;;;;;;;;;;5004446;28;7156;-92
2023/05/03 03:27:09;;;;;;;;;;;;;;;;;;5004628;28;7428;-94
2023/05/03 03:29:35;;;;;;;;;;;;;;;;;;5004670;28;8298;-94
2023/05/03 03:32:01;;;;;;;;;;;;;;;;;;5004406;28;8280;-93
2023/05/03 03:34:27;;;;;;;;;;;;;;;;;;5004292;28;7016;-94
2023/05/03 03:36:53;;;;;;;;;;;;;;;;;;5004236;28;7546;-94
2023/05/03 03:39:18;;;;;;;;;;;;;;;;;;5004333;28;6988;-94
2023/05/03 03:41:44;;;;;;;;;;;;;;;;;;5004399;28;8325;-93
2023/05/03 03:44:10;;;;;;;;;;;;;;;;;;5004525;28;8591;-93
2023/05/03 03:46:36;;;;;;;;;;;;;;;;;;4988002;28;8340;-94
2023/05/03 03:49:02;;;;;;;;;;;;;;;;;;5004184;28;7175;-93
2023/05/03 03:51:27;;;;;;;;;;;;;;;;;;5004495;28;7187;-94
2023/05/03 03:53:53;;;;;;;;;;;;;;;;;;5003885;28;7384;-93
2023/05/03 03:56:20;;;;;;;;;;;;;;;;;;5004215;28;7021;-93
2023/05/03 03:58:46;;;;;;;;;;;;;;;;;;5004159;28;7032;-93
2023/05/03 04:01:11;;;;;;;;;;;;;;;;;;5004062;28;8715;-93
2023/05/03 04:03:37;;;;;;;;;;;;;;;;;;5003719;28;8347;-93
2023/05/03 04:06:03;;;;;;;;;;;;;;;;;;4981599;28;7482;-93
2023/05/03 04:08:29;;;;;;;;;;;;;;;;;;4983774;28;7025;-94
2023/05/03 04:10:54;;;;;;;;;;;;;;;;;;4979337;28;7031;-94
2023/05/03 04:13:20;;;;;;;;;;;;;;;;;;4986339;28;7133;-94
2023/05/03 04:15:46;;;;;;;;;;;;;;;;;;4986931;28;7033;-93
2023/05/03 04:18:12;;;;;;;;;;;;;;;;;;4986765;28;8467;-92
2023/05/03 04:20:38;;;;;;;;;;;;;;;;;;4987114;28;7142;-94
2023/05/03 04:23:03;;;;;;;;;;;;;;;;;;4987322;28;8343;-94
2023/05/03 04:25:30;;;;;;;;;;;;;;;;;;4987089;28;8443;-93
2023/05/03 04:27:57;;;;;;;;;;;;;;;;;;4987120;28;7035;-93
2023/05/03 04:30:23;;;;;;;;;;;;;;;;;;4987085;28;8500;-94
2023/05/03 04:32:52;;;;;;;;;;;;;;;;;;4986949;28;7497;-94
2023/05/03 04:35:18;;;;;;;;;;;;;;;;;;4986971;28;7036;-94
2023/05/03 04:37:44;;;;;;;;;;;;;;;;;;4986893;28;8390;-93
2023/05/03 04:40:11;;;;;;;;;;;;;;;;;;4987044;28;8377;-94
2023/05/03 04:42:37;;;;;;;;;;;;;;;;;;4986850;28;7341;-95
2023/05/03 04:45:03;;;;;;;;;;;;;;;;;;4987049;28;6832;-93
2023/05/03 04:47:29;;;;;;;;;;;;;;;;;;4987014;28;7261;-94
2023/05/03 04:49:55;;;;;;;;;;;;;;;;;;4986898;28;7630;-93
2023/05/03 04:52:21;;;;;;;;;;;;;;;;;;4986663;28;8392;-93
2023/05/03 04:54:46;;;;;;;;;;;;;;;;;;4986897;28;7353;-94
2023/05/03 04:57:12;;;;;;;;;;;;;;;;;;4984112;28;8371;-93
2023/05/03 04:59:38;;;;;;;;;;;;;;;;;;4981549;28;8352;-94
2023/05/03 05:02:04;;;;;;;;;;;;;;;;;;4985499;28;6836;-93
2023/05/03 05:04:29;;;;;;;;;;;;;;;;;;4991130;28;7156;-93
2023/05/03 05:06:55;;;;;;;;;;;;;;;;;;4977574;28;7413;-94
2023/05/03 05:09:22;;;;;;;;;;;;;;;;;;4982768;28;7024;-94
2023/05/03 05:11:48;;;;;;;;;;;;;;;;;;4981051;28;8306;-93
2023/05/03 05:14:14;;;;;;;;;;;;;;;;;;4995104;28;7043;-93
2023/05/03 05:16:39;;;;;;;;;;;;;;;;;;4982987;28;7347;-93
2023/05/03 05:19:05;;;;;;;;;;;;;;;;;;4985430;28;6849;-94
2023/05/03 05:21:31;;;;;;;;;;;;;;;;;;4995664;28;7259;-94
2023/05/03 05:23:56;;;;;;;;;;;;;;;;;;4982536;28;7042;-93
2023/05/03 05:26:22;;;;;;;;;;;;;;;;;;4982675;28;7036;-93
2023/05/03 05:28:48;;;;;;;;;;;;;;;;;;4996098;28;8416;-92
2023/05/03 05:31:14;;;;;;;;;;;;;;;;;;4974405;28;8408;-92
2023/05/03 05:33:40;;;;;;;;;;;;;;;;;;4992374;28;8429;-93
2023/05/03 05:36:05;;;;;;;;;;;;;;;;;;4991097;28;7168;-92
2023/05/03 05:38:31;;;;;;;;;;;;;;;;;;4997392;28;7253;-93
2023/05/03 05:40:57;;;;;;;;;;;;;;;;;;5002645;28;6848;-93
2023/05/03 05:43:23;;;;;;;;;;;;;;;;;;4992123;28;7011;-95
2023/05/03 05:45:48;;;;;;;;;;;;;;;;;;4975143;28;7039;-94
2023/05/03 05:48:22;;;;;;;;;;;;;;;;;;4975182;28;7407;-95
2023/05/03 05:50:47;;;;;;;;;;;;;;;;;;4994280;28;6860;-94
2023/05/03 05:53:19;;;;;;;;;;;;;;;;;;4977223;28;6841;-94
2023/05/03 05:55:45;;;;;;;;;;;;;;;;;;4989734;28;8214;-94
2023/05/03 05:58:12;;;;;;;;;;;;;;;;;;4980559;28;7153;-94
2023/05/03 06:00:38;;;;;;;;;;;;;;;;;;4949419;29;7257;-95
2023/05/03 06:03:04;;;;;;;;;;;;;;;;;;4967761;28;8306;-93
2023/05/03 06:05:30;;;;;;;;;;;;;;;;;;4966116;28;7131;-92
2023/05/03 06:07:55;;;;;;;;;;;;;;;;;;4967872;28;6814;-94
2023/05/03 06:10:21;;;;;;;;;;;;;;;;;;4980411;28;8442;-93
2023/05/03 06:12:47;;;;;;;;;;;;;;;;;;4981925;28;8448;-94
2023/05/03 06:15:13;;;;;;;;;;;;;;;;;;4983509;28;7017;-93
2023/05/03 06:17:39;;;;;;;;;;;;;;;;;;4981227;28;7084;-94
2023/05/03 06:20:05;;;;;;;;;;;;;;;;;;4967273;28;8276;-95
2023/05/03 06:22:30;;;;;;;;;;;;;;;;;;4966345;29;8455;-94
2023/05/03 06:24:56;;;;;;;;;;;;;;;;;;4965954;29;8377;-94
2023/05/03 06:27:23;;;;;;;;;;;;;;;;;;4966110;29;8631;-94
2023/05/03 06:29:49;;;;;;;;;;;;;;;;;;4966601;29;7051;-93
2023/05/03 06:32:15;;;;;;;;;;;;;;;;;;4967131;28;6998;-93
2023/05/03 06:34:40;;;;;;;;;;;;;;;;;;4965539;29;8390;-92
2023/05/03 06:37:06;;;;;;;;;;;;;;;;;;4965615;29;7380;-94
2023/05/03 06:39:32;;;;;;;;;;;;;;;;;;4965671;29;7017;-94
2023/05/03 06:41:57;;;;;;;;;;;;;;;;;;4966412;28;7208;-93
2023/05/03 06:44:23;;;;;;;;;;;;;;;;;;4969651;28;8404;-94
2023/05/03 06:46:50;;;;;;;;;;;;;;;;;;4968989;28;7143;-94
2023/05/03 06:49:16;;;;;;;;;;;;;;;;;;4969347;28;7025;-94
2023/05/03 06:51:42;;;;;;;;;;;;;;;;;;4969023;28;8437;-95
2023/05/03 06:54:08;;;;;;;;;;;;;;;;;;4969213;28;8838;-94
2023/05/03 06:56:35;;;;;;;;;;;;;;;;;;4969162;28;7159;-95
2023/05/03 06:59:01;;;;;;;;;;;;;;;;;;4969285;28;7046;-95
2023/05/03 07:01:27;;;;;;;;;;;;;;;;;;4969036;28;8611;-95
2023/05/03 07:03:53;;;;;;;;;;;;;;;;;;4978000;28;7041;-94
2023/05/03 07:06:18;;;;;;;;;;;;;;;;;;5000307;28;6995;-96
2023/05/03 07:08:45;;;;;;;;;;;;;;;;;;4988153;28;8326;-95
2023/05/03 07:11:10;;;;;;;;;;;;;;;;;;4988634;28;7033;-95
2023/05/03 07:13:36;;;;;;;;;;;;;;;;;;4987941;28;6864;-95
2023/05/03 07:16:02;;;;;;;;;;;;;;;;;;4987951;28;7007;-95
2023/05/03 07:18:28;;;;;;;;;;;;;;;;;;4988647;28;8301;-93
2023/05/03 07:20:55;;;;;;;;;;;;;;;;;;4988065;28;7185;-96
2023/05/03 07:23:21;;;;;;;;;;;;;;;;;;4988009;28;8311;-94
2023/05/03 07:25:47;;;;;;;;;;;;;;;;;;4987924;28;8396;-93
2023/05/03 07:28:13;;;;;;;;;;;;;;;;;;4987884;28;8323;-94
2023/05/03 07:30:39;;;;;;;;;;;;;;;;;;4987650;28;8315;-94
2023/05/03 07:33:05;;;;;;;;;;;;;;;;;;4984464;28;7121;-94
2023/05/03 07:35:31;;;;;;;;;;;;;;;;;;4987839;28;8442;-94
2023/05/03 07:37:57;;;;;;;;;;;;;;;;;;4987622;28;8687;-95
2023/05/03 07:40:23;;;;;;;;;;;;;;;;;;4987754;28;8275;-94
2023/05/03 07:42:49;;;;;;;;;;;;;;;;;;4982015;28;6965;-94
2023/05/03 07:45:18;;;;;;;;;;;;;;;;;;4979976;28;6995;-95
2023/05/03 07:47:43;;;;;;;;;;;;;;;;;;4984505;28;8398;-95
2023/05/03 07:50:10;;;;;;;;;;;;;;;;;;4989016;28;8393;-94
2023/05/03 07:52:37;;;;;;;;;;;;;;;;;;4986368;28;7058;-94
2023/05/03 07:55:04;;;;;;;;;;;;;;;;;;4988613;28;8319;-95
2023/05/03 07:57:30;;;;;;;;;;;;;;;;;;4986394;28;8519;-94
2023/05/03 07:59:58;;;;;;;;;;;;;;;;;;4991711;28;8506;-94
2023/05/03 08:02:24;;;;;;;;;;;;;;;;;;4985810;28;8766;-95
2023/05/03 08:04:50;;;;;;;;;;;;;;;;;;4984011;28;7099;-95
2023/05/03 08:07:18;;;;;;;;;;;;;;;;;;4990098;28;7222;-94
2023/05/03 08:09:44;;;;;;;;;;;;;;;;;;4987549;28;8477;-93
2023/05/03 08:12:10;;;;;;;;;;;;;;;;;;4987856;28;8269;-94
2023/05/03 08:14:36;;;;;;;;;;;;;;;;;;4976023;28;7094;-96
2023/05/03 08:17:03;;;;;;;;;;;;;;;;;;4987059;28;8890;-94
2023/05/03 08:19:29;;;;;;;;;;;;;;;;;;4986902;28;7042;-96
2023/05/03 08:21:55;;;;;;;;;;;;;;;;;;4987074;28;6805;-96
2023/05/03 08:24:22;;;;;;;;;;;;;;;;;;4986622;28;8425;-96
2023/05/03 08:26:48;;;;;;;;;;;;;;;;;;4983247;28;8447;-95
2023/05/03 08:29:14;;;;;;;;;;;;;;;;;;4983339;28;8324;-96
2023/05/03 08:31:40;;;;;;;;;;;;;;;;;;4983563;28;6881;-96
2023/05/03 08:34:06;;;;;;;;;;;;;;;;;;4983350;28;8407;-96
2023/05/03 08:36:33;;;;;;;;;;;;;;;;;;4983283;28;8507;-94
2023/05/03 08:38:59;;;;;;;;;;;;;;;;;;4983340;28;7219;-96
2023/05/03 08:41:29;;;;;;;;;;;;;;;;;;4983301;28;8701;-95
2023/05/03 08:43:56;;;;;;;;;;;;;;;;;;4983260;28;7068;-96
2023/05/03 08:46:22;;;;;;;;;;;;;;;;;;4983112;28;8688;-95
2023/05/03 08:48:50;;;;;;;;;;;;;;;;;;4982967;28;6821;-94
2023/05/03 08:51:17;;;;;;;;;;;;;;;;;;4983320;28;7393;-95
2023/05/03 08:53:42;;;;;;;;;;;;;;;;;;4983067;28;7049;-95
2023/05/03 08:56:11;;;;;;;;;;;;;;;;;;4983161;28;6859;-96
2023/05/03 08:58:37;;;;;;;;;;;;;;;;;;4983090;28;6855;-96
2023/05/03 09:01:07;;;;;;;;;;;;;;;;;;4983235;28;6825;-95
2023/05/03 09:03:34;;;;;;;;;;;;;;;;;;4982775;28;8317;-95
2023/05/03 09:06:03;;;;;;;;;;;;;;;;;;4982184;28;7415;-96
2023/05/03 09:08:30;;;;;;;;;;;;;;;;;;4983825;28;7001;-96
2023/05/03 09:11:01;;;;;;;;;;;;;;;;;;4983873;28;6823;-96
2023/05/03 09:13:30;;;;;;;;;;;;;;;;;;4983685;28;6831;-95
2023/05/03 09:15:57;;;;;;;;;;;;;;;;;;4966791;28;7035;-96
2023/05/03 09:18:23;;;;;;;;;;;;;;;;;;4982239;28;8731;-95
2023/05/03 09:20:50;;;;;;;;;;;;;;;;;;4985748;28;6825;-96
2023/05/03 09:23:25;;;;;;;;;;;;;;;;;;4992909;28;6914;-96
2023/05/03 09:25:50;;;;;;;;;;;;;;;;;;4983174;28;8288;-95
2023/05/03 09:28:18;;;;;;;;;;;;;;;;;;4989224;28;8432;-96
2023/05/03 09:30:45;;;;;;;;;;;;;;;;;;4978054;28;7250;-94
2023/05/03 09:33:11;;;;;;;;;;;;;;;;;;4986749;28;7025;-96
2023/05/03 09:35:37;;;;;;;;;;;;;;;;;;4983546;28;8503;-96
2023/05/03 09:38:03;;;;;;;;;;;;;;;;;;4991161;28;6988;-95
2023/05/03 09:40:29;;;;;;;;;;;;;;;;;;4985945;28;7978;-96
2023/05/03 09:43:06;;;;;;;;;;;;;;;;;;4986413;28;7257;-96
2023/05/03 09:45:33;;;;;;;;;;;;;;;;;;4986461;28;8574;-94
2023/05/03 09:48:00;;;;;;;;;;;;;;;;;;4985821;28;6820;-95
2023/05/03 09:50:27;;;;;;;;;;;;;;;;;;4985641;28;6825;-94
2023/05/03 09:52:54;;;;;;;;;;;;;;;;;;4985904;28;7133;-93
2023/05/03 09:55:20;;;;;;;;;;;;;;;;;;4985314;28;7123;-96
2023/05/03 09:57:47;;;;;;;;;;;;;;;;;;4984000;28;8150;-95
2023/05/03 10:00:15;;;;;;;;;;;;;;;;;;4969286;28;7131;-94
2023/05/03 10:02:41;;;;;;;;;;;;;;;;;;4966121;29;8414;-96
2023/05/03 10:05:10;;;;;;;;;;;;;;;;;;4967128;29;8483;-95
2023/05/03 10:07:40;;;;;;;;;;;;;;;;;;4967198;29;6844;-95
2023/05/03 10:10:06;;;;;;;;;;;;;;;;;;4966446;29;8290;-94
2023/05/03 10:12:34;;;;;;;;;;;;;;;;;;4981327;28;8615;-94
2023/05/03 10:15:04;;;;;;;;;;;;;;;;;;5000727;28;7253;-94
2023/05/03 10:17:36;;;;;;;;;;;;;;;;;;4971399;28;8323;-95
2023/05/03 10:20:15;;;;;;;;;;;;;;;;;;4972397;28;8334;-94
2023/05/03 10:23:00;;;;;;;;;;;;;;;;;;4972434;28;8336;-92
2023/05/03 10:25:25;;;;;;;;;;;;;;;;;;4994799;28;6840;-95
2023/05/03 10:27:51;;;;;;;;;;;;;;;;;;4994113;28;7035;-95
2023/05/03 10:30:28;;;;;;;;;;;;;;;;;;4993948;28;7240;-94
2023/05/03 10:32:54;;;;;;;;;;;;;;;;;;4994493;28;7092;-95
2023/05/03 10:35:20;;;;;;;;;;;;;;;;;;4993927;28;7058;-95
2023/05/03 10:37:49;;;;;;;;;;;;;;;;;;4990190;28;6979;-94
2023/05/03 10:40:16;;;;;;;;;;;;;;;;;;4989010;28;7057;-95
2023/05/03 10:42:49;;;;;;;;;;;;;;;;;;4988905;28;7129;-95
2023/05/03 10:45:23;;;;;;;;;;;;;;;;;;4988715;28;7129;-94
2023/05/03 10:48:21;;;;;;;;;;;;;;;;;;4988970;28;6888;-94
2023/05/03 10:50:48;;;;;;;;;;;;;;;;;;4946302;28;6847;-95
2023/05/03 10:53:32;;;;;;;;;;;;;;;;;;4989125;28;7038;-93
2023/05/03 10:56:04;;;;;;;;;;;;;;;;;;5005050;28;7071;-94
2023/05/03 10:58:34;;;;;;;;;;;;;;;;;;4988647;28;6903;-94
2023/05/03 11:01:01;;;;;;;;;;;;;;;;;;4988328;28;8719;-95
2023/05/03 11:03:27;;;;;;;;;;;;;;;;;;4988304;28;7202;-94
2023/05/03 11:05:53;;;;;;;;;;;;;;;;;;5004587;28;8268;-93
2023/05/03 11:08:20;;;;;;;;;;;;;;;;;;4989742;28;8501;-93
2023/05/03 11:10:46;;;;;;;;;;;;;;;;;;4988441;28;8371;-93
2023/05/03 11:13:12;;;;;;;;;;;;;;;;;;4988354;28;7039;-94
2023/05/03 11:15:38;;;;;;;;;;;;;;;;;;4988416;28;7061;-93
2023/05/03 11:18:05;;;;;;;;;;;;;;;;;;4988293;28;7424;-95
2023/05/03 11:20:31;;;;;;;;;;;;;;;;;;4971892;28;8725;-95
2023/05/03 11:22:57;;;;;;;;;;;;;;;;;;4987791;28;6818;-96
2023/05/03 11:25:22;;;;;;;;;;;;;;;;;;4983999;28;8393;-96
2023/05/03 11:27:48;;;;;;;;;;;;;;;;;;4984464;28;7032;-94
2023/05/03 11:30:14;;;;;;;;;;;;;;;;;;4989171;28;8389;-95
2023/05/03 11:32:43;;;;;;;;;;;;;;;;;;4987802;28;7357;-95
2023/05/03 11:35:11;;;;;;;;;;;;;;;;;;4987903;28;7063;-96
2023/05/03 11:37:36;;;;;;;;;;;;;;;;;;4987997;28;8577;-94
2023/05/03 11:40:03;;;;;;;;;;;;;;;;;;4987725;28;7303;-94
2023/05/03 11:42:29;;;;;;;;;;;;;;;;;;4986955;28;7014;-94
2023/05/03 11:44:55;;;;;;;;;;;;;;;;;;4987675;28;7164;-95
2023/05/03 11:47:21;;;;;;;;;;;;;;;;;;4987661;28;8445;-94
2023/05/03 11:49:51;;;;;;;;;;;;;;;;;;4987706;28;8388;-94
2023/05/03 11:52:21;;;;;;;;;;;;;;;;;;4987524;28;8351;-93
2023/05/03 11:54:47;;;;;;;;;;;;;;;;;;4984070;28;7330;-95
2023/05/03 11:57:13;;;;;;;;;;;;;;;;;;4967773;28;8405;-94
2023/05/03 11:59:40;;;;;;;;;;;;;;;;;;4968019;28;7136;-93
2023/05/03 12:02:06;;;;;;;;;;;;;;;;;;4967637;28;7129;-93
2023/05/03 12:04:32;;;;;;;;;;;;;;;;;;4968103;28;8713;-94
2023/05/03 12:06:58;;;;;;;;;;;;;;;;;;4967609;28;7075;-94
2023/05/03 12:09:24;;;;;;;;;;;;;;;;;;4968210;28;7194;-93
2023/05/03 12:11:50;;;;;;;;;;;;;;;;;;4967617;28;8292;-96
2023/05/03 12:14:16;;;;;;;;;;;;;;;;;;4967228;28;8569;-94
2023/05/03 12:16:50;;;;;;;;;;;;;;;;;;4983138;28;6895;-93
2023/05/03 12:19:34;;;;;;;;;;;;;;;;;;4966942;28;6837;-94
2023/05/03 12:21:59;;;;;;;;;;;;;;;;;;4967398;28;8744;-93
2023/05/03 12:24:25;;;;;;;;;;;;;;;;;;4978778;28;8596;-91
2023/05/03 12:26:51;;;;;;;;;;;;;;;;;;4986939;28;7242;-93
2023/05/03 12:29:18;;;;;;;;;;;;;;;;;;4986724;28;8312;-92
2023/05/03 12:31:44;;;;;;;;;;;;;;;;;;4986731;28;7431;-94
2023/05/03 12:34:11;;;;;;;;;;;;;;;;;;4972923;28;7231;-93
2023/05/03 12:36:37;;;;;;;;;;;;;;;;;;4967195;28;6816;-93
2023/05/03 12:39:03;;;;;;;;;;;;;;;;;;4987713;28;7132;-93
2023/05/03 12:41:30;;;;;;;;;;;;;;;;;;4985738;28;7051;-94
2023/05/03 12:43:57;;;;;;;;;;;;;;;;;;4986769;28;7164;-94
2023/05/03 12:46:23;;;;;;;;;;;;;;;;;;4986498;28;8446;-93
2023/05/03 12:48:49;;;;;;;;;;;;;;;;;;4986682;28;6829;-94
2023/05/03 12:51:14;;;;;;;;;;;;;;;;;;4985845;28;8912;-92
2023/05/03 12:53:40;;;;;;;;;;;;;;;;;;4985612;28;8283;-93
2023/05/03 12:56:06;;;;;;;;;;;;;;;;;;4985848;28;7024;-93
2023/05/03 12:58:32;;;;;;;;;;;;;;;;;;4985639;28;7010;-93
2023/05/03 13:00:58;;;;;;;;;;;;;;;;;;4985955;28;8473;-93
2023/05/03 13:03:24;;;;;;;;;;;;;;;;;;4985622;28;7010;-94
2023/05/03 13:05:50;;;;;;;;;;;;;;;;;;4986006;28;8369;-92
2023/05/03 13:08:16;;;;;;;;;;;;;;;;;;4986238;28;8303;-93
2023/05/03 13:10:42;;;;;;;;;;;;;;;;;;4986208;28;7098;-94
2023/05/03 13:13:08;;;;;;;;;;;;;;;;;;4986462;28;8650;-93
2023/05/03 13:15:35;;;;;;;;;;;;;;;;;;4986079;28;8402;-93
2023/05/03 13:18:03;;;;;;;;;;;;;;;;;;4986050;28;8491;-92
2023/05/03 13:20:29;;;;;;;;;;;;;;;;;;4985844;28;8743;-94
2023/05/03 13:22:56;;;;;;;;;;;;;;;;;;4986026;28;8435;-94
2023/05/03 13:25:21;;;;;;;;;;;;;;;;;;4986053;28;7055;-94
2023/05/03 13:27:49;;;;;;;;;;;;;;;;;;4986094;28;8315;-93
2023/05/03 13:30:15;;;;;;;;;;;;;;;;;;4985890;28;8865;-93
2023/05/03 13:32:41;;;;;;;;;;;;;;;;;;4975349;28;8876;-93
2023/05/03 13:35:08;;;;;;;;;;;;;;;;;;4981191;28;8444;-93
2023/05/03 13:37:34;;;;;;;;;;;;;;;;;;4978130;28;7104;-93
2023/05/03 13:40:00;;;;;;;;;;;;;;;;;;4966346;28;8486;-93
2023/05/03 13:42:26;;;;;;;;;;;;;;;;;;4966322;28;7008;-93
2023/05/03 13:44:51;;;;;;;;;;;;;;;;;;4966158;28;7169;-94
2023/05/03 13:47:17;;;;;;;;;;;;;;;;;;4966202;28;7505;-93
2023/05/03 13:49:43;;;;;;;;;;;;;;;;;;4966264;29;8375;-93
2023/05/03 13:52:09;;;;;;;;;;;;;;;;;;4971013;28;7042;-94
2023/05/03 13:54:35;;;;;;;;;;;;;;;;;;4972566;28;7213;-94
2023/05/03 13:57:01;;;;;;;;;;;;;;;;;;4972424;28;8277;-94
2023/05/03 13:59:27;;;;;;;;;;;;;;;;;;4972615;28;8698;-93
2023/05/03 14:01:53;;;;;;;;;;;;;;;;;;4972627;28;8409;-93
2023/05/03 14:04:18;;;;;;;;;;;;;;;;;;4972365;28;7033;-95
2023/05/03 14:06:44;;;;;;;;;;;;;;;;;;4972720;28;6849;-94
2023/05/03 14:09:10;;;;;;;;;;;;;;;;;;4972590;28;7015;-94
2023/05/03 14:11:37;;;;;;;;;;;;;;;;;;4972326;28;7034;-93
2023/05/03 14:14:03;;;;;;;;;;;;;;;;;;4980935;28;8460;-95
2023/05/03 14:16:29;;;;;;;;;;;;;;;;;;4982022;28;7009;-93
2023/05/03 14:18:54;;;;;;;;;;;;;;;;;;4978032;28;6795;-93
2023/05/03 14:21:20;;;;;;;;;;;;;;;;;;4981255;28;8455;-93
2023/05/03 14:23:47;;;;;;;;;;;;;;;;;;4984781;28;8287;-92
2023/05/03 14:26:13;;;;;;;;;;;;;;;;;;4984950;28;7254;-92
2023/05/03 14:28:39;;;;;;;;;;;;;;;;;;4988416;28;7165;-91
2023/05/03 14:31:06;;;;;;;;;;;;;;;;;;4973519;28;7159;-91
2023/05/03 14:33:32;;;;;;;;;;;;;;;;;;4997222;28;6899;-92
2023/05/03 14:35:58;;;;;;;;;;;;;;;;;;5003777;28;7162;-93
2023/05/03 14:38:24;;;;;;;;;;;;;;;;;;5007127;28;7146;-92
2023/05/03 14:40:54;;;;;;;;;;;;;;;;;;5004534;28;7206;-91
2023/05/03 14:43:20;;;;;;;;;;;;;;;;;;4972195;28;7048;-92
2023/05/03 14:45:47;;;;;;;;;;;;;;;;;;4972262;28;8619;-93
2023/05/03 14:48:15;;;;;;;;;;;;;;;;;;4989528;28;7253;-92
2023/05/03 14:50:46;;;;;;;;;;;;;;;;;;4991779;28;6822;-92
2023/05/03 14:53:12;;;;;;;;;;;;;;;;;;4991815;28;8501;-92
2023/05/03 14:55:38;;;;;;;;;;;;;;;;;;4991427;28;7139;-92
2023/05/03 14:58:03;;;;;;;;;;;;;;;;;;4991471;28;7044;-92
2023/05/03 15:00:29;;;;;;;;;;;;;;;;;;4991439;28;7019;-91
2023/05/03 15:02:54;;;;;;;;;;;;;;;;;;4988732;28;8478;-92
2023/05/03 15:05:20;;;;;;;;;;;;;;;;;;4988288;28;7048;-94
2023/05/03 15:07:46;;;;;;;;;;;;;;;;;;4988336;28;8275;-94
2023/05/03 15:10:12;;;;;;;;;;;;;;;;;;4988512;28;8560;-93
2023/05/03 15:12:38;;;;;;;;;;;;;;;;;;4985074;28;8309;-93
2023/05/03 15:15:04;;;;;;;;;;;;;;;;;;4968707;28;7053;-92
2023/05/03 15:17:30;;;;;;;;;;;;;;;;;;4968670;28;8419;-93
2023/05/03 15:19:56;;;;;;;;;;;;;;;;;;4968822;28;7099;-92
2023/05/03 15:22:21;;;;;;;;;;;;;;;;;;4981767;28;8405;-93
2023/05/03 15:24:47;;;;;;;;;;;;;;;;;;4968824;28;8341;-93
2023/05/03 15:27:13;;;;;;;;;;;;;;;;;;4984838;28;7025;-94
2023/05/03 15:29:39;;;;;;;;;;;;;;;;;;4984627;28;9006;-94
2023/05/03 15:32:05;;;;;;;;;;;;;;;;;;4999371;28;6950;-93
2023/05/03 15:34:31;;;;;;;;;;;;;;;;;;4984421;28;7013;-95
2023/05/03 15:36:57;;;;;;;;;;;;;;;;;;4987628;28;8317;-93
2023/05/03 15:39:23;;;;;;;;;;;;;;;;;;4978710;28;7220;-93
2023/05/03 15:41:49;;;;;;;;;;;;;;;;;;4968402;28;7159;-93
2023/05/03 15:44:15;;;;;;;;;;;;;;;;;;4975846;28;6825;-92
2023/05/03 15:46:41;;;;;;;;;;;;;;;;;;4972953;28;8436;-92
2023/05/03 15:49:06;;;;;;;;;;;;;;;;;;4968390;28;7053;-92
2023/05/03 15:51:32;;;;;;;;;;;;;;;;;;4970133;28;8474;-93
2023/05/03 15:53:58;;;;;;;;;;;;;;;;;;4995975;28;8377;-93
2023/05/03 15:56:24;;;;;;;;;;;;;;;;;;4986153;28;6830;-94
2023/05/03 15:58:50;;;;;;;;;;;;;;;;;;4977330;28;7046;-94
2023/05/03 16:01:17;;;;;;;;;;;;;;;;;;4984007;28;7200;-93
2023/05/03 16:03:43;;;;;;;;;;;;;;;;;;4983337;28;7240;-94
2023/05/03 16:06:09;;;;;;;;;;;;;;;;;;4984561;28;6955;-93
2023/05/03 16:08:34;;;;;;;;;;;;;;;;;;4983985;28;7143;-94
2023/05/03 16:11:00;;;;;;;;;;;;;;;;;;4983618;28;8317;-94
2023/05/03 16:13:27;;;;;;;;;;;;;;;;;;4984205;28;7237;-94
2023/05/03 16:15:57;;;;;;;;;;;;;;;;;;4983787;28;7045;-93
2023/05/03 16:18:23;;;;;;;;;;;;;;;;;;4983734;28;6832;-93
2023/05/03 16:20:50;;;;;;;;;;;;;;;;;;5000559;28;6827;-94
2023/05/03 16:23:15;;;;;;;;;;;;;;;;;;5003365;28;7137;-94
2023/05/03 16:25:41;;;;;;;;;;;;;;;;;;5003242;28;8382;-96
2023/05/03 16:28:07;;;;;;;;;;;;;;;;;;5003196;28;7277;-94
2023/05/03 16:30:33;;;;;;;;;;;;;;;;;;5002941;28;8282;-94
2023/05/03 16:33:01;;;;;;;;;;;;;;;;;;4999153;28;7030;-96
2023/05/03 16:35:27;;;;;;;;;;;;;;;;;;4981977;28;7030;-96
2023/05/03 16:37:52;;;;;;;;;;;;;;;;;;4987367;28;8898;-96
2023/05/03 16:40:18;;;;;;;;;;;;;;;;;;4983268;28;8679;-96
2023/05/03 16:42:47;;;;;;;;;;;;;;;;;;4967228;28;7038;-95
2023/05/03 16:45:15;;;;;;;;;;;;;;;;;;4967398;28;7014;-94
2023/05/03 16:47:41;;;;;;;;;;;;;;;;;;4975629;28;6810;-96
2023/05/03 16:50:08;;;;;;;;;;;;;;;;;;4972829;28;7043;-93
2023/05/03 16:52:37;;;;;;;;;;;;;;;;;;4976239;28;8471;-94
2023/05/03 16:55:05;;;;;;;;;;;;;;;;;;4992767;28;7392;-95
2023/05/03 16:57:30;;;;;;;;;;;;;;;;;;4978447;28;8601;-94
2023/05/03 16:59:57;;;;;;;;;;;;;;;;;;4966960;28;6829;-96